Time;durP1;ratioP1;P1;durP2;ratioP2;P2;SDS_P1;SDS_P2;PMS_P1;PMS_P2;Temp;Humidity;BMP_temperature;BMP_pressure;BME280_temperature;BME280_humidity;BME280_pressure;Samples;Min_cycle;Max_cycle;Signal;HPM_P1;HPM_P2
2022/05/29 00:00:06;;;;;;;3.07;2.30;;;11.50;99.90;;;;;;5012107;28;20250;-55
2022/05/29 00:02:32;;;;;;;2.10;1.90;;;11.50;99.90;;;;;;5012371;28;20270;-56
2022/05/29 00:04:57;;;;;;;2.50;2.10;;;11.40;99.90;;;;;;5012114;28;20185;-56
2022/05/29 00:07:23;;;;;;;4.13;2.30;;;11.40;99.90;;;;;;5011932;28;20187;-56
2022/05/29 00:09:49;;;;;;;2.57;2.10;;;11.40;99.90;;;;;;5012184;28;20189;-56
2022/05/29 00:12:17;;;;;;;2.23;2.00;;;11.40;99.90;;;;;;5012128;28;20566;-56
2022/05/29 00:14:42;;;;;;;2.50;2.20;;;11.40;99.90;;;;;;5011787;28;20211;-55
2022/05/29 00:17:08;;;;;;;4.17;2.23;;;11.50;99.90;;;;;;5012337;28;20533;-53
2022/05/29 00:19:34;;;;;;;3.23;1.90;;;11.40;99.90;;;;;;5012072;28;20173;-58
2022/05/29 00:22:01;;;;;;;2.73;2.17;;;11.50;99.90;;;;;;5011933;28;20283;-57
2022/05/29 00:24:27;;;;;;;2.77;2.10;;;11.40;99.90;;;;;;5011637;28;20255;-56
2022/05/29 00:26:54;;;;;;;2.93;2.10;;;11.40;99.90;;;;;;5011977;28;20266;-57
2022/05/29 00:29:20;;;;;;;2.53;2.10;;;11.40;99.90;;;;;;5011823;28;20219;-54
2022/05/29 00:31:46;;;;;;;3.23;2.20;;;11.40;99.90;;;;;;5011843;28;20202;-56
2022/05/29 00:34:11;;;;;;;2.93;2.30;;;11.40;99.90;;;;;;5011722;28;20176;-57
2022/05/29 00:36:40;;;;;;;2.80;2.60;;;11.30;99.90;;;;;;5011745;28;20169;-54
2022/05/29 00:39:10;;;;;;;3.07;2.77;;;11.30;99.90;;;;;;5011774;28;20234;-57
2022/05/29 00:41:37;;;;;;;3.63;2.53;;;11.20;99.90;;;;;;5011836;28;20173;-58
2022/05/29 00:44:18;;;;;;;5.07;2.80;;;11.20;99.90;;;;;;5011433;28;20179;-55
2022/05/29 00:46:45;;;;;;;3.53;2.70;;;11.20;99.90;;;;;;5011985;28;20168;-53
2022/05/29 00:49:12;;;;;;;3.73;2.47;;;11.20;99.90;;;;;;5011740;28;20177;-56
2022/05/29 00:51:42;;;;;;;2.73;2.03;;;11.20;99.90;;;;;;5012087;28;20164;-54
2022/05/29 00:54:08;;;;;;;4.47;2.30;;;11.10;99.90;;;;;;5011755;28;20207;-51
2022/05/29 00:56:36;;;;;;;3.57;2.30;;;11.00;99.90;;;;;;5011640;28;20232;-54
2022/05/29 00:59:02;;;;;;;6.17;2.50;;;10.90;99.90;;;;;;5011178;28;20191;-54
2022/05/29 01:01:29;;;;;;;2.63;2.20;;;10.90;99.90;;;;;;5009614;28;20695;-52
2022/05/29 01:03:55;;;;;;;2.83;2.40;;;10.80;99.90;;;;;;5011137;28;20176;-53
2022/05/29 01:06:21;;;;;;;2.23;2.03;;;10.80;99.90;;;;;;5011654;28;20180;-54
2022/05/29 01:08:48;;;;;;;2.87;2.50;;;10.70;99.90;;;;;;5011591;28;20743;-54
2022/05/29 01:11:25;;;;;;;4.80;2.40;;;10.70;99.90;;;;;;5011640;28;20685;-52
2022/05/29 01:14:21;;;;;;;4.17;2.87;;;10.70;99.90;;;;;;5011134;28;20187;-54
2022/05/29 01:17:05;;;;;;;4.13;2.80;;;10.60;99.90;;;;;;5011622;28;20189;-54
2022/05/29 01:19:42;;;;;;;3.90;2.70;;;10.50;99.90;;;;;;5011472;28;20153;-54
2022/05/29 01:22:29;;;;;;;3.03;2.73;;;10.50;99.90;;;;;;5011477;28;20219;-55
2022/05/29 01:25:16;;;;;;;3.10;2.73;;;10.40;99.90;;;;;;5011113;28;20516;-53
2022/05/29 01:27:53;;;;;;;4.23;2.83;;;10.40;99.90;;;;;;5011180;28;20242;-53
2022/05/29 01:30:24;;;;;;;4.87;2.60;;;10.40;99.90;;;;;;5010459;28;20172;-53
2022/05/29 01:33:14;;;;;;;3.20;2.40;;;10.40;99.90;;;;;;5011133;28;20201;-52
2022/05/29 01:35:48;;;;;;;3.17;2.53;;;10.40;99.90;;;;;;5010922;28;20197;-55
2022/05/29 01:38:16;;;;;;;3.17;2.33;;;10.30;99.90;;;;;;5011191;28;20156;-55
2022/05/29 01:40:48;;;;;;;3.47;2.57;;;10.30;99.90;;;;;;5011482;28;20172;-54
2022/05/29 01:43:39;;;;;;;2.60;2.40;;;10.30;99.90;;;;;;5011136;28;20211;-54
2022/05/29 01:46:14;;;;;;;2.80;2.43;;;10.30;99.90;;;;;;5011307;28;20157;-52
2022/05/29 01:49:21;;;;;;;2.33;2.13;;;10.20;99.90;;;;;;5010960;28;20727;-55
2022/05/29 01:52:01;;;;;;;2.27;2.03;;;10.20;99.90;;;;;;5011100;28;20192;-53
2022/05/29 01:54:34;;;;;;;3.27;2.13;;;10.20;99.90;;;;;;5010827;28;20176;-52
2022/05/29 01:57:07;;;;;;;3.63;2.20;;;10.20;99.90;;;;;;5011109;28;20183;-52
2022/05/29 01:59:40;;;;;;;2.10;1.90;;;10.20;99.90;;;;;;5011060;28;20207;-53
2022/05/29 02:02:14;;;;;;;2.87;2.30;;;10.10;99.90;;;;;;5011036;28;20219;-56
2022/05/29 02:04:47;;;;;;;2.53;2.13;;;10.10;99.90;;;;;;5010822;28;20172;-54
2022/05/29 02:10:11;;;;;;;2.50;2.23;;;10.10;99.90;;;;;;5011208;28;20227;-53
2022/05/29 02:12:43;;;;;;;3.23;2.30;;;10.00;99.90;;;;;;5012156;28;20248;-52
2022/05/29 02:15:13;;;;;;;3.43;2.10;;;10.00;99.90;;;;;;5014046;28;20303;-53
2022/05/29 02:17:43;;;;;;;4.47;2.20;;;9.90;99.90;;;;;;5014456;28;20169;-56
2022/05/29 02:20:21;;;;;;;3.37;2.40;;;9.90;99.90;;;;;;5014343;28;20311;-53
2022/05/29 02:22:49;;;;;;;3.73;2.70;;;9.90;99.90;;;;;;5014284;28;20200;-53
2022/05/29 02:25:19;;;;;;;3.20;2.57;;;9.90;99.90;;;;;;5014017;28;20511;-54
2022/05/29 02:28:03;;;;;;;3.13;2.57;;;10.60;99.90;;;;;;5014128;28;20630;-53
2022/05/29 02:31:07;;;;;;;3.23;2.70;;;9.80;99.90;;;;;;5014148;28;20185;-56
2022/05/29 02:33:46;;;;;;;2.83;2.33;;;9.80;99.90;;;;;;4995809;28;20279;-52
2022/05/29 02:36:42;;;;;;;3.80;2.50;;;9.70;99.90;;;;;;5014017;28;20214;-53
2022/05/29 02:39:19;;;;;;;3.57;2.70;;;9.70;99.90;;;;;;4953075;29;20222;-57
2022/05/29 02:42:25;;;;;;;3.33;2.40;;;9.70;99.90;;;;;;4953240;29;20552;-56
2022/05/29 02:45:14;;;;;;;3.27;2.70;;;9.70;99.90;;;;;;4953032;29;20229;-55
2022/05/29 02:47:45;;;;;;;2.10;1.90;;;9.70;99.90;;;;;;4953171;29;20178;-55
2022/05/29 02:50:31;;;;;;;2.67;2.17;;;9.60;99.90;;;;;;4953249;29;20186;-55
2022/05/29 02:53:00;;;;;;;2.83;2.30;;;9.60;99.90;;;;;;4953126;29;20281;-53
2022/05/29 02:55:27;;;;;;;3.70;2.10;;;9.60;99.90;;;;;;4952679;29;20264;-58
2022/05/29 02:57:58;;;;;;;3.00;2.10;;;9.60;99.90;;;;;;4952941;29;20637;-58
2022/05/29 03:00:24;;;;;;;3.10;2.00;;;9.60;99.90;;;;;;4953060;29;20210;-55
2022/05/29 03:03:04;;;;;;;2.70;1.90;;;9.60;99.90;;;;;;4952909;29;20203;-55
2022/05/29 03:05:39;;;;;;;2.20;2.10;;;9.60;99.90;;;;;;4952682;29;20684;-56
2022/05/29 03:08:25;;;;;;;2.77;2.00;;;9.60;99.90;;;;;;4952894;29;20173;-57
2022/05/29 03:11:16;;;;;;;2.30;1.80;;;9.60;99.90;;;;;;4952814;29;20221;-56
2022/05/29 03:13:48;;;;;;;3.67;2.10;;;9.60;99.90;;;;;;4952305;29;20217;-54
2022/05/29 03:16:32;;;;;;;2.80;2.23;;;9.60;99.90;;;;;;4982619;28;20208;-58
2022/05/29 03:19:15;;;;;;;3.80;2.13;;;9.50;99.90;;;;;;5013139;28;20685;-56
2022/05/29 03:22:17;;;;;;;2.97;2.10;;;9.40;99.90;;;;;;5013241;28;20164;-55
2022/05/29 03:24:50;;;;;;;3.80;2.17;;;9.40;99.90;;;;;;4935319;29;20186;-57
2022/05/29 03:27:39;;;;;;;2.57;2.07;;;9.40;99.90;;;;;;4952690;29;20274;-54
2022/05/29 03:30:14;;;;;;;3.47;2.10;;;9.40;99.90;;;;;;4952570;29;20186;-52
2022/05/29 03:32:41;;;;;;;4.60;2.50;;;9.40;99.90;;;;;;4952540;29;20198;-56
2022/05/29 03:35:26;;;;;;;3.20;2.40;;;9.40;99.90;;;;;;4952077;29;20207;-56
2022/05/29 03:37:52;;;;;;;3.97;2.80;;;9.40;99.90;;;;;;4952308;29;20174;-55
2022/05/29 03:40:19;;;;;;;3.47;2.73;;;9.30;99.90;;;;;;4952242;29;20257;-52
2022/05/29 03:42:45;;;;;;;3.20;2.60;;;9.90;99.90;;;;;;4936182;29;20210;-54
2022/05/29 03:45:11;;;;;;;3.27;1.90;;;9.10;99.90;;;;;;4951937;29;20265;-53
2022/05/29 03:47:37;;;;;;;1.83;1.73;;;9.10;99.90;;;;;;4952117;29;20242;-51
2022/05/29 03:50:05;;;;;;;2.00;1.90;;;9.20;99.90;;;;;;4952021;29;20183;-53
2022/05/29 03:52:31;;;;;;;2.03;1.87;;;9.10;99.90;;;;;;4951914;29;20202;-54
2022/05/29 03:54:58;;;;;;;3.77;2.33;;;9.10;99.90;;;;;;4951666;29;20218;-55
2022/05/29 03:57:23;;;;;;;2.67;2.47;;;9.10;99.90;;;;;;4952000;29;20648;-53
2022/05/29 03:59:49;;;;;;;4.80;2.53;;;9.10;99.90;;;;;;4952818;28;20185;-54
2022/05/29 04:02:14;;;;;;;2.77;2.20;;;9.10;99.90;;;;;;5012460;28;20184;-56
2022/05/29 04:04:40;;;;;;;2.23;2.10;;;9.10;99.90;;;;;;5012302;28;20172;-56
2022/05/29 04:07:05;;;;;;;2.87;2.47;;;9.20;99.90;;;;;;5012237;28;20191;-56
2022/05/29 04:12:16;;;;;;;2.90;2.60;;;9.40;99.90;;;;;;5007674;28;20301;-55
2022/05/29 04:14:43;;;;;;;3.63;2.70;;;9.50;99.90;;;;;;5010885;28;20212;-55
2022/05/29 04:17:12;;;;;;;3.60;3.13;;;9.60;99.90;;;;;;5011728;28;20231;-55
2022/05/29 04:19:38;;;;;;;4.03;3.40;;;9.60;99.90;;;;;;5011712;28;20272;-56
2022/05/29 04:22:10;;;;;;;3.53;3.10;;;9.70;99.90;;;;;;5012079;28;20189;-55
2022/05/29 04:24:35;;;;;;;3.77;2.93;;;9.80;99.90;;;;;;5011552;28;20526;-55
2022/05/29 04:27:01;;;;;;;3.73;2.90;;;9.80;99.90;;;;;;5012024;28;20183;-51
2022/05/29 04:29:26;;;;;;;3.10;2.50;;;9.90;99.90;;;;;;5006913;28;20176;-52
2022/05/29 04:34:37;;;;;;;2.60;2.20;;;10.00;99.90;;;;;;4995518;28;20638;-51
2022/05/29 04:37:03;;;;;;;2.13;2.00;;;10.10;99.90;;;;;;4998660;28;20271;-53
2022/05/29 04:39:32;;;;;;;2.30;2.00;;;10.20;99.90;;;;;;5011767;28;20176;-54
2022/05/29 04:42:00;;;;;;;2.07;1.87;;;10.30;99.90;;;;;;5010150;28;20249;-54
2022/05/29 04:44:26;;;;;;;2.13;1.93;;;10.40;99.90;;;;;;5011026;28;20711;-54
2022/05/29 04:46:51;;;;;;;2.20;1.80;;;10.40;99.90;;;;;;5006996;28;20184;-55
2022/05/29 04:49:17;;;;;;;2.03;1.83;;;10.50;99.90;;;;;;5011723;28;20187;-54
2022/05/29 04:51:42;;;;;;;2.53;1.73;;;10.50;99.90;;;;;;5010963;28;20188;-53
2022/05/29 04:54:08;;;;;;;2.90;2.00;;;10.60;99.90;;;;;;5011288;28;20181;-54
2022/05/29 04:56:33;;;;;;;1.90;1.70;;;10.70;99.90;;;;;;4998918;28;20213;-56
2022/05/29 04:58:59;;;;;;;2.30;1.70;;;10.80;99.90;;;;;;5006493;28;20263;-56
2022/05/29 05:01:24;;;;;;;2.20;2.00;;;10.80;99.90;;;;;;4991909;28;20224;-56
2022/05/29 05:03:50;;;;;;;1.80;1.70;;;10.90;99.90;;;;;;4992621;28;20208;-53
2022/05/29 05:06:15;;;;;;;2.00;1.70;;;11.00;99.90;;;;;;4991876;28;20255;-52
2022/05/29 05:08:41;;;;;;;2.60;1.63;;;11.10;99.90;;;;;;4997680;28;20197;-53
2022/05/29 05:11:06;;;;;;;2.40;1.70;;;11.20;99.90;;;;;;4995121;28;20199;-57
2022/05/29 05:13:32;;;;;;;2.10;1.90;;;11.30;99.90;;;;;;5002570;28;20704;-52
2022/05/29 05:16:03;;;;;;;3.50;1.60;;;11.30;99.90;;;;;;5008616;28;20200;-57
2022/05/29 05:18:29;;;;;;;3.47;1.80;;;11.40;99.90;;;;;;5011466;28;20169;-54
2022/05/29 05:20:54;;;;;;;1.90;1.80;;;11.50;99.90;;;;;;5009922;28;20246;-52
2022/05/29 05:23:20;;;;;;;2.03;1.60;;;11.60;99.90;;;;;;5011303;28;20705;-55
2022/05/29 05:25:45;;;;;;;2.33;1.60;;;11.70;99.90;;;;;;4995253;28;20223;-53
2022/05/29 05:28:11;;;;;;;2.17;1.60;;;11.90;99.90;;;;;;4992715;28;20752;-53
2022/05/29 05:30:36;;;;;;;2.00;1.57;;;11.90;99.90;;;;;;4992342;28;20243;-53
2022/05/29 05:33:02;;;;;;;2.67;1.80;;;12.00;99.90;;;;;;4993539;28;20243;-54
2022/05/29 05:35:28;;;;;;;1.67;1.57;;;12.10;99.90;;;;;;4991647;28;20778;-53
2022/05/29 05:37:53;;;;;;;3.60;2.17;;;12.00;99.90;;;;;;5003437;28;20191;-57
2022/05/29 05:40:19;;;;;;;1.60;1.50;;;12.10;99.90;;;;;;4993586;28;20202;-58
2022/05/29 05:42:44;;;;;;;3.17;1.77;;;12.00;99.90;;;;;;5009359;28;20546;-53
2022/05/29 05:45:12;;;;;;;2.00;1.70;;;12.10;99.90;;;;;;4994416;28;20189;-56
2022/05/29 05:47:38;;;;;;;2.37;1.57;;;12.20;99.90;;;;;;4981867;28;20180;-53
2022/05/29 05:50:05;;;;;;;2.80;1.70;;;12.40;99.90;;;;;;4995203;28;20185;-57
2022/05/29 05:52:30;;;;;;;2.00;1.23;;;12.50;99.90;;;;;;4996162;28;20239;-56
2022/05/29 05:54:56;;;;;;;1.80;1.67;;;12.70;99.90;;;;;;4990463;28;20240;-54
2022/05/29 05:57:21;;;;;;;2.87;1.70;;;12.90;99.90;;;;;;4996050;28;20193;-56
2022/05/29 05:59:47;;;;;;;1.70;1.50;;;13.10;99.90;;;;;;5001601;28;20180;-57
2022/05/29 06:02:13;;;;;;;2.30;1.50;;;13.10;99.90;;;;;;5013043;28;20263;-55
2022/05/29 06:04:41;;;;;;;3.43;1.40;;;13.10;99.90;;;;;;5009329;28;20185;-57
2022/05/29 06:07:07;;;;;;;2.20;1.40;;;13.20;99.90;;;;;;5004368;28;20562;-56
2022/05/29 06:09:34;;;;;;;1.93;1.40;;;13.40;99.90;;;;;;5012859;28;20181;-55
2022/05/29 06:12:00;;;;;;;2.33;1.67;;;13.50;99.90;;;;;;4999681;28;20206;-53
2022/05/29 06:14:26;;;;;;;2.03;1.80;;;13.60;99.90;;;;;;4994676;28;20717;-55
2022/05/29 06:16:51;;;;;;;2.97;1.73;;;13.70;99.90;;;;;;4995297;28;20194;-55
2022/05/29 06:19:18;;;;;;;3.47;1.83;;;13.80;99.90;;;;;;5005757;28;20222;-57
2022/05/29 06:21:44;;;;;;;3.80;1.80;;;14.00;99.90;;;;;;4995748;28;20173;-56
2022/05/29 06:24:09;;;;;;;2.67;1.87;;;14.10;99.90;;;;;;5004082;28;20191;-56
2022/05/29 06:26:35;;;;;;;4.70;1.70;;;14.20;99.90;;;;;;5014153;28;20184;-54
2022/05/29 06:29:00;;;;;;;2.73;1.63;;;14.30;99.90;;;;;;5012739;28;20188;-56
2022/05/29 06:31:26;;;;;;;1.73;1.20;;;14.30;99.90;;;;;;5011007;28;20235;-57
2022/05/29 06:33:52;;;;;;;1.60;1.40;;;14.30;99.90;;;;;;4991288;28;20192;-56
2022/05/29 06:36:23;;;;;;;1.73;1.27;;;14.20;99.90;;;;;;4995762;28;20220;-55
2022/05/29 06:38:49;;;;;;;2.97;1.20;;;14.40;99.90;;;;;;4994417;28;20572;-56
2022/05/29 06:41:17;;;;;;;1.50;1.40;;;14.50;99.90;;;;;;4995189;28;20183;-53
2022/05/29 06:43:43;;;;;;;1.93;1.27;;;14.80;99.90;;;;;;5004889;28;20190;-51
2022/05/29 06:46:10;;;;;;;2.07;1.70;;;15.00;99.90;;;;;;5013929;28;20562;-51
2022/05/29 06:48:38;;;;;;;2.13;1.13;;;15.10;99.90;;;;;;4999447;28;20527;-53
2022/05/29 06:51:16;;;;;;;2.53;1.27;;;15.20;99.90;;;;;;5011586;28;20183;-56
2022/05/29 06:53:41;;;;;;;2.17;1.50;;;15.30;99.90;;;;;;4999653;28;20327;-57
2022/05/29 06:56:09;;;;;;;2.50;1.33;;;15.30;99.90;;;;;;5009265;28;20200;-54
2022/05/29 06:58:35;;;;;;;2.17;1.23;;;15.10;99.90;;;;;;5007055;28;20243;-54
2022/05/29 07:09:18;;;;;;;1.57;1.30;;;15.50;99.90;;;;;;5007418;28;20223;-54
2022/05/29 07:11:45;;;;;;;1.40;1.30;;;15.50;99.90;;;;;;5007520;28;20741;-55
2022/05/29 07:14:11;;;;;;;1.73;1.30;;;15.70;99.90;;;;;;5000822;28;20185;-53
2022/05/29 07:16:37;;;;;;;1.17;1.07;;;15.80;99.90;;;;;;4998064;28;20559;-54
2022/05/29 07:19:04;;;;;;;2.17;1.60;;;;;;;;;;5012815;28;20165;-57
2022/05/29 07:21:33;;;;;;;1.13;1.00;;;15.70;99.90;;;;;;5000291;28;20208;-54
2022/05/29 07:23:58;;;;;;;1.30;1.20;;;15.90;99.90;;;;;;4993402;28;20240;-56
2022/05/29 07:26:25;;;;;;;3.37;1.57;;;;;;;;;;5011761;28;20180;-55
2022/05/29 07:28:51;;;;;;;1.80;1.50;;;16.20;99.90;;;;;;5012924;28;20610;-57
2022/05/29 07:31:17;;;;;;;2.73;1.20;;;16.40;99.90;;;;;;5008447;28;20208;-54
2022/05/29 07:33:42;;;;;;;1.73;1.20;;;16.50;99.90;;;;;;5000253;28;20204;-55
2022/05/29 07:36:12;;;;;;;3.17;1.73;;;16.70;99.90;;;;;;4999305;28;20201;-55
2022/05/29 07:38:39;;;;;;;2.63;1.30;;;16.80;99.90;;;;;;4996127;28;20263;-53
2022/05/29 07:43:18;;;;;;;1.20;1.10;;;17.00;99.90;;;;;;4997436;28;20203;-56
2022/05/29 07:43:56;;;;;;;1.97;1.43;;;17.00;99.90;;;;;;4993740;28;20664;-54
2022/05/29 07:46:22;;;;;;;3.93;1.53;;;17.00;99.90;;;;;;4993258;28;20185;-52
2022/05/29 07:48:49;;;;;;;2.03;1.30;;;17.00;99.90;;;;;;4993897;28;20262;-51
2022/05/29 07:51:14;;;;;;;1.20;1.10;;;17.10;99.90;;;;;;4993252;28;20179;-54
2022/05/29 07:53:40;;;;;;;4.43;1.70;;;17.20;99.90;;;;;;5005143;28;20269;-52
2022/05/29 07:56:06;;;;;;;2.40;1.50;;;18.60;99.90;;;;;;5010521;28;20609;-54
2022/05/29 07:58:33;;;;;;;2.17;1.33;;;17.20;99.90;;;;;;5004750;28;20232;-57
2022/05/29 08:01:01;;;;;;;1.47;1.37;;;17.30;99.90;;;;;;4996552;28;20197;-54
2022/05/29 08:03:28;;;;;;;3.70;1.63;;;17.30;99.90;;;;;;4992423;28;20197;-54
2022/05/29 08:05:55;;;;;;;2.20;1.60;;;17.50;99.90;;;;;;4978346;28;20190;-51
2022/05/29 08:08:20;;;;;;;2.77;1.93;;;17.60;99.90;;;;;;5002346;28;20294;-56
2022/05/29 08:10:46;;;;;;;1.60;1.20;;;17.60;99.90;;;;;;5002841;28;20210;-56
2022/05/29 08:13:12;;;;;;;2.70;1.30;;;17.60;99.90;;;;;;4970953;28;20262;-51
2022/05/29 08:15:38;;;;;;;1.60;1.40;;;17.60;99.90;;;;;;5000317;28;20295;-55
2022/05/29 08:18:04;;;;;;;3.90;1.70;;;17.60;99.90;;;;;;4980589;28;21469;-56
2022/05/29 08:20:30;;;;;;;2.00;1.20;;;17.70;99.90;;;;;;4990235;28;20210;-54
2022/05/29 08:22:56;;;;;;;1.73;1.50;;;17.70;99.90;;;;;;5004409;28;20230;-51
2022/05/29 08:30:53;;;;;;;1.60;1.40;;;17.10;99.90;;;;;;5003278;28;20278;-56
2022/05/29 08:33:28;;;;;;;4.27;1.40;;;17.10;99.90;;;;;;5008869;28;20204;-54
2022/05/29 08:36:06;;;;;;;2.37;1.30;;;17.30;99.90;;;;;;5008878;28;20207;-50
2022/05/29 08:38:34;;;;;;;2.03;1.40;;;17.50;99.90;;;;;;4999880;28;20181;-53
2022/05/29 08:41:23;;;;;;;2.60;1.50;;;17.70;99.90;;;;;;5019700;28;20542;-55
2022/05/29 08:44:01;;;;;;;2.87;1.80;;;17.90;99.90;;;;;;4989702;28;20682;-55
2022/05/29 08:46:38;;;;;;;1.93;1.47;;;18.10;99.90;;;;;;5000550;28;20173;-56
2022/05/29 08:49:05;;;;;;;2.23;1.37;;;18.10;99.90;;;;;;5016454;28;20168;-54
2022/05/29 08:51:53;;;;;;;2.20;1.37;;;18.20;99.90;;;;;;4994707;28;20185;-51
2022/05/29 08:54:24;;;;;;;2.10;1.43;;;18.20;99.90;;;;;;5002221;28;20182;-54
2022/05/29 08:57:09;;;;;;;1.60;1.43;;;18.30;99.90;;;;;;5011748;28;20710;-50
2022/05/29 08:59:50;;;;;;;2.00;1.43;;;18.40;99.90;;;;;;5004205;28;20263;-50
2022/05/29 09:02:41;;;;;;;2.83;1.40;;;18.40;99.90;;;;;;5009052;28;20259;-50
2022/05/29 09:05:14;;;;;;;1.37;1.20;;;18.20;99.90;;;;;;5027129;28;20582;-51
2022/05/29 09:07:42;;;;;;;2.33;1.80;;;18.00;99.90;;;;;;5022820;28;20184;-50
2022/05/29 09:10:36;;;;;;;2.17;1.40;;;17.80;99.90;;;;;;5011617;28;20181;-50
2022/05/29 09:13:08;;;;;;;2.20;1.50;;;17.90;99.90;;;;;;5005912;28;20221;-52
2022/05/29 09:15:43;;;;;;;2.30;1.30;;;17.90;99.90;;;;;;5011411;28;20713;-49
2022/05/29 09:18:19;;;;;;;2.10;1.40;;;17.90;99.90;;;;;;5011875;28;20152;-52
2022/05/29 09:20:59;;;;;;;1.67;1.40;;;18.00;99.90;;;;;;5011523;28;20319;-50
2022/05/29 09:23:30;;;;;;;2.03;1.27;;;18.00;99.90;;;;;;5000884;28;20212;-50
2022/05/29 09:25:57;;;;;;;2.97;1.90;;;18.10;99.80;;;;;;4998604;28;20184;-53
2022/05/29 09:28:35;;;;;;;2.77;1.50;;;18.10;99.80;;;;;;5007266;28;20262;-52
2022/05/29 09:31:22;;;;;;;2.47;1.50;;;18.20;99.90;;;;;;4996639;28;20184;-48
2022/05/29 09:33:48;;;;;;;3.50;1.60;;;18.20;99.90;;;;;;4995309;28;20809;-53
2022/05/29 09:36:38;;;;;;;2.07;1.27;;;18.00;99.90;;;;;;4996604;28;20279;-55
2022/05/29 09:39:05;;;;;;;2.13;1.47;;;17.90;99.90;;;;;;5001031;28;20170;-55
2022/05/29 09:42:04;;;;;;;1.37;1.20;;;17.90;99.90;;;;;;5004764;28;20168;-51
2022/05/29 09:44:30;;;;;;;2.10;1.33;;;17.90;99.90;;;;;;5001461;28;20176;-55
2022/05/29 09:49:40;;;;;;;1.47;1.37;;;18.00;99.90;;;;;;5009376;28;20179;-53
2022/05/29 09:49:41;;;;;;;1.23;1.13;;;17.80;99.90;;;;;;5004930;28;20195;-54
2022/05/29 09:52:20;;;;;;;3.13;1.30;;;17.80;99.90;;;;;;5014374;28;20204;-51
2022/05/29 09:54:51;;;;;;;2.03;1.27;;;17.90;99.90;;;;;;5014318;28;20727;-53
2022/05/29 09:57:21;;;;;;;2.17;1.20;;;18.00;99.90;;;;;;5015243;28;20256;-52
2022/05/29 09:59:51;;;;;;;2.23;1.30;;;18.00;99.90;;;;;;5014631;28;20199;-54
2022/05/29 10:02:31;;;;;;;1.83;1.30;;;18.00;99.90;;;;;;5015074;28;20556;-54
2022/05/29 10:04:59;;;;;;;2.60;1.43;;;17.90;99.90;;;;;;5014872;28;20177;-51
2022/05/29 10:07:42;;;;;;;1.80;1.30;;;17.90;99.90;;;;;;5014593;28;20548;-52
2022/05/29 10:10:30;;;;;;;2.10;1.20;;;17.80;99.40;;;;;;5014848;28;20175;-55
2022/05/29 10:12:58;;;;;;;1.93;1.40;;;17.80;99.50;;;;;;5014883;28;20221;-51
2022/05/29 10:15:26;;;;;;;2.40;1.30;;;17.80;99.50;;;;;;5014584;28;20199;-52
2022/05/29 10:17:53;;;;;;;3.17;1.33;;;17.80;99.50;;;;;;5014592;28;20175;-52
2022/05/29 10:20:34;;;;;;;2.00;1.40;;;17.90;99.90;;;;;;5014707;28;20656;-55
2022/05/29 10:23:22;;;;;;;1.23;1.00;;;18.00;99.40;;;;;;5014637;28;20203;-52
2022/05/29 10:25:56;;;;;;;2.03;1.10;;;18.10;99.50;;;;;;4947870;29;20240;-53
2022/05/29 10:28:28;;;;;;;2.20;1.10;;;18.20;98.70;;;;;;4953971;29;20551;-53
2022/05/29 10:31:00;;;;;;;1.83;1.07;;;18.20;99.40;;;;;;4953926;29;20199;-52
2022/05/29 10:33:30;;;;;;;2.13;1.40;;;18.30;99.10;;;;;;4953604;29;20207;-51
2022/05/29 10:36:02;;;;;;;1.67;1.03;;;18.20;98.90;;;;;;4953560;28;20217;-53
2022/05/29 10:38:29;;;;;;;1.30;1.10;;;18.10;98.80;;;;;;4953993;29;20210;-50
2022/05/29 10:41:01;;;;;;;3.33;1.80;;;18.10;99.90;;;;;;4953794;29;20354;-53
2022/05/29 10:43:50;;;;;;;1.40;1.13;;;18.00;98.40;;;;;;4953330;29;20205;-52
2022/05/29 10:46:22;;;;;;;2.47;1.30;;;17.80;99.00;;;;;;4953910;29;20229;-53
2022/05/29 10:48:53;;;;;;;1.37;1.13;;;17.40;99.60;;;;;;4953567;29;20183;-55
2022/05/29 10:51:49;;;;;;;3.87;1.40;;;17.50;99.90;;;;;;4953776;29;20223;-53
2022/05/29 10:54:52;;;;;;;2.03;1.40;;;17.60;99.80;;;;;;4953558;29;20680;-54
2022/05/29 10:57:43;;;;;;;1.00;0.90;;;17.70;99.90;;;;;;4947612;29;20282;-54
2022/05/29 11:00:11;;;;;;;2.00;1.00;;;17.80;99.90;;;;;;4953060;28;20653;-52
2022/05/29 11:05:55;;;;;;;1.53;0.90;;;17.80;99.90;;;;;;4993868;28;20179;-52
2022/05/29 11:08:34;;;;;;;2.73;1.20;;;17.80;99.90;;;;;;4993943;28;20613;-52
2022/05/29 11:11:08;;;;;;;1.00;0.90;;;18.00;99.90;;;;;;4994099;28;20177;-56
2022/05/29 11:13:34;;;;;;;1.70;1.10;;;18.00;99.90;;;;;;4993519;28;20211;-56
2022/05/29 11:16:32;;;;;;;1.77;1.20;;;18.10;99.90;;;;;;4994027;28;20201;-55
2022/05/29 11:19:04;;;;;;;3.30;1.53;;;18.30;99.90;;;;;;4993984;28;20180;-55
2022/05/29 11:22:06;;;;;;;1.20;1.07;;;18.00;99.90;;;;;;4994262;28;20228;-56
2022/05/29 11:24:45;;;;;;;2.90;1.40;;;18.00;99.90;;;;;;4993650;28;20207;-54
2022/05/29 11:27:43;;;;;;;1.83;1.20;;;17.90;99.90;;;;;;4994010;28;20165;-53
2022/05/29 11:30:16;;;;;;;1.20;1.10;;;17.90;99.90;;;;;;4994058;28;20480;-55
2022/05/29 11:32:57;;;;;;;2.03;1.30;;;17.90;99.90;;;;;;4993529;28;20247;-51
2022/05/29 11:35:46;;;;;;;1.47;1.20;;;18.00;99.90;;;;;;4993338;28;20260;-52
2022/05/29 11:38:11;;;;;;;1.03;0.93;;;17.80;99.90;;;;;;4961495;28;20165;-54
2022/05/29 11:40:43;;;;;;;0.97;0.93;;;17.90;99.90;;;;;;4993658;28;20175;-52
2022/05/29 11:43:30;;;;;;;6.73;1.20;;;18.10;99.90;;;;;;4993532;28;20197;-52
2022/05/29 11:52:00;;;;;;;1.67;1.20;;;18.90;99.30;;;;;;4993442;28;20203;-53
2022/05/29 11:54:39;;;;;;;2.00;1.20;;;18.80;99.00;;;;;;4992884;28;20157;-53
2022/05/29 11:57:14;;;;;;;1.57;1.00;;;18.80;99.00;;;;;;4993026;28;20170;-53
2022/05/29 11:59:57;;;;;;;1.13;1.03;;;18.80;99.20;;;;;;4992952;28;20164;-53
2022/05/29 12:02:33;;;;;;;1.53;1.30;;;18.90;98.30;;;;;;4993103;28;20209;-55
2022/05/29 12:05:09;;;;;;;2.57;1.20;;;18.90;98.00;;;;;;4995305;28;20208;-55
2022/05/29 12:07:48;;;;;;;1.20;1.10;;;18.90;98.40;;;;;;5005142;28;20226;-54
2022/05/29 12:10:27;;;;;;;2.43;1.37;;;18.80;98.30;;;;;;5012771;28;20181;-52
2022/05/29 12:13:12;;;;;;;2.43;1.20;;;18.70;99.50;;;;;;5012401;28;20610;-53
2022/05/29 12:15:38;;;;;;;2.00;1.10;;;18.60;99.20;;;;;;5012449;28;20223;-52
2022/05/29 12:18:06;;;;;;;2.13;1.30;;;18.60;99.80;;;;;;5012733;28;20268;-52
2022/05/29 12:20:43;;;;;;;1.27;1.07;;;18.60;97.80;;;;;;5012608;28;20212;-50
2022/05/29 12:23:35;;;;;;;1.43;0.90;;;18.60;96.80;;;;;;5012461;28;20191;-53
2022/05/29 12:26:07;;;;;;;0.93;0.80;;;18.60;96.80;;;;;;5005907;28;20188;-55
2022/05/29 12:28:59;;;;;;;1.23;1.00;;;18.70;96.00;;;;;;5012523;28;20153;-51
2022/05/29 12:31:31;;;;;;;1.10;0.90;;;18.90;96.20;;;;;;5009469;28;20197;-51
2022/05/29 12:33:57;;;;;;;2.10;0.90;;;18.80;96.50;;;;;;5010808;28;20227;-55
2022/05/29 12:36:54;;;;;;;4.17;1.23;;;18.70;96.80;;;;;;5012256;28;20204;-51
2022/05/29 12:39:37;;;;;;;1.70;1.00;;;18.60;96.90;;;;;;5011871;28;20256;-51
2022/05/29 12:42:36;;;;;;;1.13;0.90;;;18.50;98.10;;;;;;5011910;28;20188;-51
2022/05/29 12:45:51;;;;;;;2.10;1.10;;;18.50;97.70;;;;;;5011919;28;20181;-51
2022/05/29 12:48:52;;;;;;;1.40;1.13;;;18.20;99.90;;;;;;4951443;29;20183;-55
2022/05/29 12:51:26;;;;;;;1.87;0.97;;;18.40;98.40;;;;;;4951245;29;20221;-53
2022/05/29 12:54:19;;;;;;;1.67;0.97;;;18.40;97.00;;;;;;4951257;29;20830;-54
2022/05/29 12:57:00;;;;;;;1.10;1.00;;;18.50;97.00;;;;;;4951201;28;20191;-52
2022/05/29 12:59:50;;;;;;;2.40;1.20;;;18.60;97.90;;;;;;4951001;29;20209;-55
2022/05/29 13:02:43;;;;;;;1.30;1.00;;;18.60;97.00;;;;;;4951148;29;20194;-52
2022/05/29 13:05:38;;;;;;;1.30;1.20;;;18.70;96.50;;;;;;4950968;29;20199;-55
2022/05/29 13:08:03;;;;;;;1.77;0.97;;;18.90;98.00;;;;;;4951501;29;20672;-54
2022/05/29 13:10:36;;;;;;;2.03;1.10;;;18.90;97.40;;;;;;4951326;29;20183;-52
2022/05/29 13:13:31;;;;;;;1.93;1.07;;;19.00;96.70;;;;;;4934998;29;20218;-53
2022/05/29 13:16:25;;;;;;;1.07;0.90;;;19.00;95.70;;;;;;4951259;29;20262;-52
2022/05/29 13:19:17;;;;;;;1.63;1.00;;;18.90;95.90;;;;;;4976426;28;20192;-55
2022/05/29 13:21:59;;;;;;;1.93;1.17;;;19.00;96.80;;;;;;5009148;28;20223;-52
2022/05/29 13:24:38;;;;;;;1.13;0.80;;;19.10;97.40;;;;;;5011634;28;20168;-55
2022/05/29 13:27:12;;;;;;;1.83;1.27;;;19.20;96.90;;;;;;5011867;28;20203;-54
2022/05/29 13:29:41;;;;;;;2.30;1.60;;;19.30;97.20;;;;;;5011876;28;20191;-54
2022/05/29 13:32:13;;;;;;;3.00;1.90;;;19.20;96.30;;;;;;5011634;28;20239;-52
2022/05/29 13:34:49;;;;;;;2.67;1.20;;;19.30;96.10;;;;;;5011522;28;20234;-56
2022/05/29 13:37:44;;;;;;;1.07;0.83;;;19.30;97.40;;;;;;5011730;28;20180;-51
2022/05/29 13:40:29;;;;;;;1.30;1.13;;;19.30;97.00;;;;;;5011760;28;20168;-52
2022/05/29 13:43:15;;;;;;;2.17;1.27;;;19.30;95.30;;;;;;4950978;29;20269;-54
2022/05/29 13:45:43;;;;;;;1.47;1.20;;;19.20;95.90;;;;;;4934678;29;20273;-57
2022/05/29 13:48:24;;;;;;;1.10;1.00;;;19.10;96.10;;;;;;4950834;29;20193;-57
2022/05/29 13:50:55;;;;;;;1.77;1.20;;;19.10;97.80;;;;;;4951065;29;20624;-58